sensor_id;sensor_type;location;lat;lon;timestamp;pressure;altitude;pressure_sealevel;temperature;humidity
75418;BME280;63997;52.112;5.420;2022-12-08T00:02:09;101224.94;;;2.98;93.21
75418;BME280;63997;52.112;5.420;2022-12-08T00:04:36;101218.34;;;3.01;93.36
75418;BME280;63997;52.112;5.420;2022-12-08T00:07:22;101213.91;;;3.01;93.41
75418;BME280;63997;52.112;5.420;2022-12-08T00:10:07;101207.34;;;3.04;93.35
75418;BME280;63997;52.112;5.420;2022-12-08T00:12:54;101205.75;;;3.03;93.22
75418;BME280;63997;52.112;5.420;2022-12-08T00:15:20;101204.72;;;3.04;93.36
75418;BME280;63997;52.112;5.420;2022-12-08T00:17:49;101199.47;;;3.04;93.48
75418;BME280;63997;52.112;5.420;2022-12-08T00:20:17;101193.16;;;3.05;93.43
75418;BME280;63997;52.112;5.420;2022-12-08T00:22:43;101198.66;;;3.08;93.45
75418;BME280;63997;52.112;5.420;2022-12-08T00:25:10;101200.00;;;3.11;93.39
75418;BME280;63997;52.112;5.420;2022-12-08T00:27:36;101203.94;;;3.13;93.47
75418;BME280;63997;52.112;5.420;2022-12-08T00:30:05;101197.38;;;3.16;93.49
75418;BME280;63997;52.112;5.420;2022-12-08T00:32:35;101194.22;;;3.19;93.64
75418;BME280;63997;52.112;5.420;2022-12-08T00:35:02;101186.34;;;3.19;93.61
75418;BME280;63997;52.112;5.420;2022-12-08T00:37:29;101186.88;;;3.21;93.71
75418;BME280;63997;52.112;5.420;2022-12-08T00:39:56;101184.25;;;3.21;93.83
75418;BME280;63997;52.112;5.420;2022-12-08T00:42:22;101173.19;;;3.19;93.81
75418;BME280;63997;52.112;5.420;2022-12-08T00:44:48;101171.91;;;3.22;93.74
75418;BME280;63997;52.112;5.420;2022-12-08T00:47:15;101165.88;;;3.21;93.84
75418;BME280;63997;52.112;5.420;2022-12-08T00:49:48;101161.66;;;3.20;93.69
75418;BME280;63997;52.112;5.420;2022-12-08T00:52:15;101152.44;;;3.17;93.77
75418;BME280;63997;52.112;5.420;2022-12-08T00:54:41;101157.19;;;3.15;93.63
75418;BME280;63997;52.112;5.420;2022-12-08T00:57:07;101152.16;;;3.14;93.76
75418;BME280;63997;52.112;5.420;2022-12-08T00:59:34;101139.84;;;3.14;93.76
75418;BME280;63997;52.112;5.420;2022-12-08T01:02:00;101139.03;;;3.14;93.66
75418;BME280;63997;52.112;5.420;2022-12-08T01:04:26;101136.66;;;3.12;93.84
75418;BME280;63997;52.112;5.420;2022-12-08T01:06:53;101141.13;;;3.12;93.73
75418;BME280;63997;52.112;5.420;2022-12-08T01:09:19;101143.75;;;3.12;93.66
75418;BME280;63997;52.112;5.420;2022-12-08T01:11:46;101131.16;;;3.09;93.62
75418;BME280;63997;52.112;5.420;2022-12-08T01:14:12;101126.94;;;3.08;93.48
75418;BME280;63997;52.112;5.420;2022-12-08T01:16:39;101128.78;;;3.07;93.71
75418;BME280;63997;52.112;5.420;2022-12-08T01:19:07;101130.34;;;3.08;93.63
75418;BME280;63997;52.112;5.420;2022-12-08T01:21:36;101138.00;;;3.10;93.69
75418;BME280;63997;52.112;5.420;2022-12-08T01:24:15;101145.59;;;3.11;93.85
75418;BME280;63997;52.112;5.420;2022-12-08T01:26:42;101148.50;;;3.15;93.71
75418;BME280;63997;52.112;5.420;2022-12-08T01:29:09;101142.19;;;3.16;93.86
75418;BME280;63997;52.112;5.420;2022-12-08T01:31:36;101139.84;;;3.14;93.78
75418;BME280;63997;52.112;5.420;2022-12-08T01:34:02;101118.56;;;3.16;93.88
75418;BME280;63997;52.112;5.420;2022-12-08T01:36:31;101122.22;;;3.15;93.77
75418;BME280;63997;52.112;5.420;2022-12-08T01:39:02;101126.94;;;3.18;93.76
75418;BME280;63997;52.112;5.420;2022-12-08T01:41:40;101130.63;;;3.22;93.55
75418;BME280;63997;52.112;5.420;2022-12-08T01:46:42;101149.56;;;3.24;93.64
75418;BME280;63997;52.112;5.420;2022-12-08T01:49:32;101145.09;;;3.25;93.72
75418;BME280;63997;52.112;5.420;2022-12-08T01:52:17;101148.25;;;3.27;93.44
75418;BME280;63997;52.112;5.420;2022-12-08T01:54:58;101141.44;;;3.26;93.72
75418;BME280;63997;52.112;5.420;2022-12-08T01:57:30;101136.41;;;3.24;93.59
75418;BME280;63997;52.112;5.420;2022-12-08T02:00:05;101128.78;;;3.23;93.73
75418;BME280;63997;52.112;5.420;2022-12-08T02:02:54;101130.91;;;3.21;93.46
75418;BME280;63997;52.112;5.420;2022-12-08T02:05:26;101137.19;;;3.19;93.60
75418;BME280;63997;52.112;5.420;2022-12-08T02:07:54;101121.19;;;3.16;93.68
75418;BME280;63997;52.112;5.420;2022-12-08T02:10:23;101117.50;;;3.17;93.51
75418;BME280;63997;52.112;5.420;2022-12-08T02:12:53;101122.22;;;3.15;93.38
75418;BME280;63997;52.112;5.420;2022-12-08T02:15:29;101109.88;;;3.15;93.53
75418;BME280;63997;52.112;5.420;2022-12-08T02:18:03;101108.03;;;3.16;93.56
75418;BME280;63997;52.112;5.420;2022-12-08T02:20:55;101105.41;;;3.16;93.66
75418;BME280;63997;52.112;5.420;2022-12-08T02:23:40;101096.97;;;3.14;93.46
75418;BME280;63997;52.112;5.420;2022-12-08T02:29:26;101090.16;;;3.13;93.54
75418;BME280;63997;52.112;5.420;2022-12-08T02:34:48;101085.97;;;3.12;93.49
75418;BME280;63997;52.112;5.420;2022-12-08T02:37:27;101081.75;;;3.11;93.50
75418;BME280;63997;52.112;5.420;2022-12-08T02:40:06;101083.34;;;3.12;93.65
75418;BME280;63997;52.112;5.420;2022-12-08T02:43:07;101088.06;;;3.15;93.74
75418;BME280;63997;52.112;5.420;2022-12-08T02:45:38;101083.34;;;3.17;93.79
75418;BME280;63997;52.112;5.420;2022-12-08T02:48:08;101075.44;;;3.17;93.79
75418;BME280;63997;52.112;5.420;2022-12-08T02:50:34;101078.34;;;3.15;93.61
75418;BME280;63997;52.112;5.420;2022-12-08T02:53:01;101070.72;;;3.14;93.96
75418;BME280;63997;52.112;5.420;2022-12-08T03:03:54;101052.84;;;3.16;94.21
75418;BME280;63997;52.112;5.420;2022-12-08T03:06:34;101049.97;;;3.17;94.21
75418;BME280;63997;52.112;5.420;2022-12-08T03:12:30;101039.97;;;3.19;94.21
75418;BME280;63997;52.112;5.420;2022-12-08T03:15:07;101047.84;;;3.19;94.29
75418;BME280;63997;52.112;5.420;2022-12-08T03:17:35;101046.53;;;3.22;94.39
75418;BME280;63997;52.112;5.420;2022-12-08T03:20:08;101042.84;;;3.23;94.31
75418;BME280;63997;52.112;5.420;2022-12-08T03:22:36;101038.13;;;3.25;94.36
75418;BME280;63997;52.112;5.420;2022-12-08T03:25:05;101038.66;;;3.27;94.63
75418;BME280;63997;52.112;5.420;2022-12-08T03:27:33;101036.53;;;3.29;94.37
75418;BME280;63997;52.112;5.420;2022-12-08T03:29:59;101040.22;;;3.33;94.28
75418;BME280;63997;52.112;5.420;2022-12-08T03:35:07;101033.63;;;3.41;94.25
75418;BME280;63997;52.112;5.420;2022-12-08T03:37:38;101038.38;;;3.39;94.22
75418;BME280;63997;52.112;5.420;2022-12-08T03:40:08;101032.84;;;3.40;94.07
75418;BME280;63997;52.112;5.420;2022-12-08T03:42:35;101036.25;;;3.41;94.19
75418;BME280;63997;52.112;5.420;2022-12-08T03:45:01;101030.22;;;3.40;93.95
75418;BME280;63997;52.112;5.420;2022-12-08T03:47:27;101026.81;;;3.40;93.91
75418;BME280;63997;52.112;5.420;2022-12-08T03:49:54;101019.19;;;3.38;93.69
75418;BME280;63997;52.112;5.420;2022-12-08T03:52:20;101024.97;;;3.35;93.59
75418;BME280;63997;52.112;5.420;2022-12-08T03:54:47;101003.44;;;3.33;93.81
75418;BME280;63997;52.112;5.420;2022-12-08T03:57:13;101006.06;;;3.28;93.81
75418;BME280;63997;52.112;5.420;2022-12-08T03:59:40;101008.97;;;3.27;93.61
75418;BME280;63997;52.112;5.420;2022-12-08T04:02:06;100998.69;;;3.25;93.41
75418;BME280;63997;52.112;5.420;2022-12-08T04:04:33;100994.25;;;3.21;93.45
75418;BME280;63997;52.112;5.420;2022-12-08T04:06:59;100991.38;;;3.17;93.42
75418;BME280;63997;52.112;5.420;2022-12-08T04:09:27;100990.84;;;3.20;93.32
75418;BME280;63997;52.112;5.420;2022-12-08T04:11:54;101000.03;;;3.23;93.28
75418;BME280;63997;52.112;5.420;2022-12-08T04:14:20;101003.16;;;3.25;93.31
75418;BME280;63997;52.112;5.420;2022-12-08T04:16:47;100998.69;;;3.25;93.09
75418;BME280;63997;52.112;5.420;2022-12-08T04:19:13;101001.31;;;3.25;93.18
75418;BME280;63997;52.112;5.420;2022-12-08T04:21:40;100996.06;;;3.25;92.83
75418;BME280;63997;52.112;5.420;2022-12-08T04:24:07;100992.66;;;3.25;92.93
75418;BME280;63997;52.112;5.420;2022-12-08T04:26:34;100995.28;;;3.25;93.01
75418;BME280;63997;52.112;5.420;2022-12-08T04:29:00;100986.09;;;3.22;93.06
75418;BME280;63997;52.112;5.420;2022-12-08T04:31:27;100980.84;;;3.22;93.04
75418;BME280;63997;52.112;5.420;2022-12-08T04:33:58;100984.78;;;3.19;93.24
75418;BME280;63997;52.112;5.420;2022-12-08T04:36:25;100981.63;;;3.23;93.39
75418;BME280;63997;52.112;5.420;2022-12-08T04:38:51;100988.47;;;3.24;93.36
75418;BME280;63997;52.112;5.420;2022-12-08T04:41:18;100980.84;;;3.22;93.39
75418;BME280;63997;52.112;5.420;2022-12-08T04:43:44;100976.91;;;3.19;93.53
75418;BME280;63997;52.112;5.420;2022-12-08T04:46:11;100977.16;;;3.18;93.29
75418;BME280;63997;52.112;5.420;2022-12-08T04:48:39;100975.59;;;3.17;93.42
75418;BME280;63997;52.112;5.420;2022-12-08T04:51:06;100976.66;;;3.16;93.67
75418;BME280;63997;52.112;5.420;2022-12-08T04:53:33;100982.97;;;3.20;93.71
75418;BME280;63997;52.112;5.420;2022-12-08T04:55:59;100980.84;;;3.22;93.81
75418;BME280;63997;52.112;5.420;2022-12-08T04:58:25;100971.91;;;3.23;93.78
75418;BME280;63997;52.112;5.420;2022-12-08T05:00:52;100982.13;;;3.25;93.98
75418;BME280;63997;52.112;5.420;2022-12-08T05:03:18;100988.44;;;3.29;93.94
75418;BME280;63997;52.112;5.420;2022-12-08T05:05:53;100973.47;;;3.29;93.95
75418;BME280;63997;52.112;5.420;2022-12-08T05:08:19;100975.03;;;3.30;93.84
75418;BME280;63997;52.112;5.420;2022-12-08T05:10:46;100973.47;;;3.29;93.80
75418;BME280;63997;52.112;5.420;2022-12-08T05:13:13;100969.78;;;3.30;93.86
75418;BME280;63997;52.112;5.420;2022-12-08T05:15:43;100966.13;;;3.31;93.83
75418;BME280;63997;52.112;5.420;2022-12-08T05:18:10;100963.50;;;3.31;93.68
75418;BME280;63997;52.112;5.420;2022-12-08T05:20:36;100963.22;;;3.33;93.42
75418;BME280;63997;52.112;5.420;2022-12-08T05:23:02;100966.13;;;3.31;93.49
75418;BME280;63997;52.112;5.420;2022-12-08T05:25:29;100968.22;;;3.29;93.25
75418;BME280;63997;52.112;5.420;2022-12-08T05:27:56;100971.38;;;3.31;93.50
75418;BME280;63997;52.112;5.420;2022-12-08T05:30:47;100969.53;;;3.32;93.19
75418;BME280;63997;52.112;5.420;2022-12-08T05:33:14;100964.53;;;3.30;93.36
75418;BME280;63997;52.112;5.420;2022-12-08T05:35:40;100965.06;;;3.32;93.28
75418;BME280;63997;52.112;5.420;2022-12-08T05:38:07;100964.78;;;3.34;93.25
75418;BME280;63997;52.112;5.420;2022-12-08T05:40:37;100966.63;;;3.33;93.22
75418;BME280;63997;52.112;5.420;2022-12-08T05:43:04;100963.22;;;3.33;93.18
75418;BME280;63997;52.112;5.420;2022-12-08T05:45:30;100966.91;;;3.32;93.08
75418;BME280;63997;52.112;5.420;2022-12-08T05:47:57;100957.69;;;3.29;92.99
75418;BME280;63997;52.112;5.420;2022-12-08T05:50:23;100962.16;;;3.29;92.88
75418;BME280;63997;52.112;5.420;2022-12-08T05:52:50;100960.59;;;3.28;93.12
75418;BME280;63997;52.112;5.420;2022-12-08T05:55:16;100956.13;;;3.28;92.89
75418;BME280;63997;52.112;5.420;2022-12-08T05:57:43;100955.34;;;3.28;92.83
75418;BME280;63997;52.112;5.420;2022-12-08T06:00:09;100958.25;;;3.26;93.02
75418;BME280;63997;52.112;5.420;2022-12-08T06:02:36;100958.50;;;3.25;92.77
75418;BME280;63997;52.112;5.420;2022-12-08T06:05:03;100954.84;;;3.26;93.00
75418;BME280;63997;52.112;5.420;2022-12-08T06:07:29;100958.25;;;3.26;92.74
75418;BME280;63997;52.112;5.420;2022-12-08T06:09:56;100951.38;;;3.25;92.78
75418;BME280;63997;52.112;5.420;2022-12-08T06:12:22;100955.06;;;3.24;92.83
75418;BME280;63997;52.112;5.420;2022-12-08T06:14:49;100958.50;;;3.25;92.88
75418;BME280;63997;52.112;5.420;2022-12-08T06:17:15;100955.63;;;3.21;92.87
75418;BME280;63997;52.112;5.420;2022-12-08T06:19:42;100952.72;;;3.23;93.23
75418;BME280;63997;52.112;5.420;2022-12-08T06:22:08;100951.16;;;3.22;93.18
75418;BME280;63997;52.112;5.420;2022-12-08T06:24:34;100947.75;;;3.21;93.17
75418;BME280;63997;52.112;5.420;2022-12-08T06:27:01;100944.06;;;3.17;93.15
75418;BME280;63997;52.112;5.420;2022-12-08T06:29:27;100943.56;;;3.15;93.20
75418;BME280;63997;52.112;5.420;2022-12-08T06:31:53;100948.81;;;3.15;93.30
75418;BME280;63997;52.112;5.420;2022-12-08T06:34:20;100944.59;;;3.14;93.21
75418;BME280;63997;52.112;5.420;2022-12-08T06:36:46;100948.81;;;3.15;93.09
75418;BME280;63997;52.112;5.420;2022-12-08T06:39:13;100946.19;;;3.15;93.05
75418;BME280;63997;52.112;5.420;2022-12-08T06:41:40;100943.00;;;3.13;93.08
75418;BME280;63997;52.112;5.420;2022-12-08T06:44:26;100948.03;;;3.09;93.20
75418;BME280;63997;52.112;5.420;2022-12-08T06:46:52;100957.75;;;3.09;93.01
75418;BME280;63997;52.112;5.420;2022-12-08T06:49:18;100955.13;;;3.09;92.97
75418;BME280;63997;52.112;5.420;2022-12-08T06:51:57;100956.16;;;3.08;92.80
75418;BME280;63997;52.112;5.420;2022-12-08T06:54:25;100959.06;;;3.06;92.77
75418;BME280;63997;52.112;5.420;2022-12-08T06:56:52;100960.13;;;3.05;92.79
75418;BME280;63997;52.112;5.420;2022-12-08T06:59:18;100964.03;;;3.03;92.83
75418;BME280;63997;52.112;5.420;2022-12-08T07:01:45;100962.47;;;3.02;92.65
75418;BME280;63997;52.112;5.420;2022-12-08T07:04:12;100957.78;;;2.99;92.54
75418;BME280;63997;52.112;5.420;2022-12-08T07:06:38;100963.25;;;2.97;92.76
75418;BME280;63997;52.112;5.420;2022-12-08T07:09:06;100962.47;;;2.97;92.83
75418;BME280;63997;52.112;5.420;2022-12-08T07:11:32;100961.19;;;2.94;92.88
75418;BME280;63997;52.112;5.420;2022-12-08T07:14:01;100953.03;;;2.90;92.75
75418;BME280;63997;52.112;5.420;2022-12-08T07:16:28;100956.19;;;2.87;92.79
75418;BME280;63997;52.112;5.420;2022-12-08T07:18:55;100950.41;;;2.85;92.52
75418;BME280;63997;52.112;5.420;2022-12-08T07:21:21;100952.53;;;2.78;92.78
75418;BME280;63997;52.112;5.420;2022-12-08T07:23:48;100955.16;;;2.78;92.66
75418;BME280;63997;52.112;5.420;2022-12-08T07:26:22;100948.84;;;2.74;92.58
75418;BME280;63997;52.112;5.420;2022-12-08T07:28:49;100941.50;;;2.71;92.70
75418;BME280;63997;52.112;5.420;2022-12-08T07:31:20;100955.16;;;2.73;92.50
75418;BME280;63997;52.112;5.420;2022-12-08T07:33:47;100950.44;;;2.75;92.54
75418;BME280;63997;52.112;5.420;2022-12-08T07:36:15;100950.44;;;2.70;92.38
75418;BME280;63997;52.112;5.420;2022-12-08T07:38:42;100952.00;;;2.66;92.58
75418;BME280;63997;52.112;5.420;2022-12-08T07:41:17;100958.81;;;2.67;92.56
75418;BME280;63997;52.112;5.420;2022-12-08T07:43:44;100952.28;;;2.64;92.51
75418;BME280;63997;52.112;5.420;2022-12-08T07:46:14;100953.06;;;2.65;92.78
75418;BME280;63997;52.112;5.420;2022-12-08T07:48:43;100951.50;;;2.64;92.58
75418;BME280;63997;52.112;5.420;2022-12-08T07:51:10;100953.56;;;2.62;92.81
75418;BME280;63997;52.112;5.420;2022-12-08T07:53:39;100952.00;;;2.61;92.79
75418;BME280;63997;52.112;5.420;2022-12-08T07:56:09;100948.09;;;2.58;92.53
75418;BME280;63997;52.112;5.420;2022-12-08T07:58:38;100955.16;;;2.58;92.58
75418;BME280;63997;52.112;5.420;2022-12-08T08:01:05;100960.94;;;2.60;92.73
75418;BME280;63997;52.112;5.420;2022-12-08T08:03:32;100955.69;;;2.60;92.70
75418;BME280;63997;52.112;5.420;2022-12-08T08:06:02;100955.16;;;2.58;92.46
75418;BME280;63997;52.112;5.420;2022-12-08T08:08:30;100952.50;;;2.58;92.42
75418;BME280;63997;52.112;5.420;2022-12-08T08:10:57;100955.97;;;2.58;92.55
75418;BME280;63997;52.112;5.420;2022-12-08T08:13:25;100954.13;;;2.59;92.56
75418;BME280;63997;52.112;5.420;2022-12-08T08:15:53;100955.97;;;2.58;92.58
75418;BME280;63997;52.112;5.420;2022-12-08T08:18:22;100954.63;;;2.56;92.65
75418;BME280;63997;52.112;5.420;2022-12-08T08:21:02;100960.38;;;2.58;92.57
75418;BME280;63997;52.112;5.420;2022-12-08T08:23:50;100967.25;;;2.59;92.83
75418;BME280;63997;52.112;5.420;2022-12-08T08:26:22;100970.38;;;2.61;92.72
75418;BME280;63997;52.112;5.420;2022-12-08T08:28:54;100969.31;;;2.62;92.70
75418;BME280;63997;52.112;5.420;2022-12-08T08:31:26;100970.91;;;2.63;92.56
75418;BME280;63997;52.112;5.420;2022-12-08T08:33:55;100961.72;;;2.60;92.69
75418;BME280;63997;52.112;5.420;2022-12-08T08:36:23;100970.13;;;2.62;92.61
75418;BME280;63997;52.112;5.420;2022-12-08T08:38:56;100963.81;;;2.63;92.63
75418;BME280;63997;52.112;5.420;2022-12-08T08:41:27;100972.22;;;2.65;92.74
75418;BME280;63997;52.112;5.420;2022-12-08T08:43:57;100977.22;;;2.67;92.75
75418;BME280;63997;52.112;5.420;2022-12-08T08:46:24;100978.25;;;2.66;92.65
75418;BME280;63997;52.112;5.420;2022-12-08T08:48:57;100979.31;;;2.65;92.63
75418;BME280;63997;52.112;5.420;2022-12-08T08:51:27;100984.03;;;2.68;92.70
75418;BME280;63997;52.112;5.420;2022-12-08T08:53:56;100984.03;;;2.68;92.74
75418;BME280;63997;52.112;5.420;2022-12-08T08:56:22;100979.31;;;2.70;92.60
75418;BME280;63997;52.112;5.420;2022-12-08T08:58:50;100977.72;;;2.69;92.75
75418;BME280;63997;52.112;5.420;2022-12-08T09:01:23;100982.47;;;2.72;92.58
75418;BME280;63997;52.112;5.420;2022-12-08T09:03:51;100975.66;;;2.71;92.63
75418;BME280;63997;52.112;5.420;2022-12-08T09:06:18;100972.75;;;2.73;92.71
75418;BME280;63997;52.112;5.420;2022-12-08T09:08:45;100978.50;;;2.75;92.77
75418;BME280;63997;52.112;5.420;2022-12-08T09:11:12;100974.59;;;2.77;92.69
75418;BME280;63997;52.112;5.420;2022-12-08T09:13:38;100973.03;;;2.76;92.40
75418;BME280;63997;52.112;5.420;2022-12-08T09:16:09;100976.94;;;2.74;92.59
75418;BME280;63997;52.112;5.420;2022-12-08T09:18:39;100968.81;;;2.70;92.46
75418;BME280;63997;52.112;5.420;2022-12-08T09:21:09;100969.06;;;2.69;92.46
75418;BME280;63997;52.112;5.420;2022-12-08T09:23:45;100965.41;;;2.70;92.73
75418;BME280;63997;52.112;5.420;2022-12-08T09:26:11;100967.75;;;2.71;92.94
75418;BME280;63997;52.112;5.420;2022-12-08T09:28:40;100961.72;;;2.71;92.57
75418;BME280;63997;52.112;5.420;2022-12-08T09:31:12;100969.06;;;2.69;92.67
75418;BME280;63997;52.112;5.420;2022-12-08T09:33:39;100966.72;;;2.72;92.57
75418;BME280;63997;52.112;5.420;2022-12-08T09:36:07;100968.56;;;2.77;92.65
75418;BME280;63997;52.112;5.420;2022-12-08T09:38:39;100967.75;;;2.81;92.49
75418;BME280;63997;52.112;5.420;2022-12-08T09:46:26;100958.56;;;2.79;92.41
75418;BME280;63997;52.112;5.420;2022-12-08T09:48:59;100958.84;;;2.82;92.70
75418;BME280;63997;52.112;5.420;2022-12-08T09:51:31;100960.91;;;2.85;92.60
75418;BME280;63997;52.112;5.420;2022-12-08T09:54:05;100959.06;;;2.86;92.46
75418;BME280;63997;52.112;5.420;2022-12-08T09:56:35;100970.38;;;2.91;92.62
75418;BME280;63997;52.112;5.420;2022-12-08T09:59:20;100968.78;;;2.96;92.22
75418;BME280;63997;52.112;5.420;2022-12-08T10:01:47;100966.72;;;2.98;92.27
75418;BME280;63997;52.112;5.420;2022-12-08T10:04:31;100969.06;;;2.99;92.18
75418;BME280;63997;52.112;5.420;2022-12-08T10:07:12;100968.50;;;3.02;92.22
75418;BME280;63997;52.112;5.420;2022-12-08T10:12:50;100964.03;;;3.08;92.41
75418;BME280;63997;52.112;5.420;2022-12-08T10:18:17;100966.94;;;3.16;92.16
75418;BME280;63997;52.112;5.420;2022-12-08T10:20:47;100966.13;;;3.21;92.39
75418;BME280;63997;52.112;5.420;2022-12-08T10:23:25;100963.75;;;3.25;92.06
75418;BME280;63997;52.112;5.420;2022-12-08T10:26:02;100961.66;;;3.27;92.13
75418;BME280;63997;52.112;5.420;2022-12-08T10:28:31;100953.00;;;3.26;92.08
75418;BME280;63997;52.112;5.420;2022-12-08T10:30:58;100960.59;;;3.28;91.49
75418;BME280;63997;52.112;5.420;2022-12-08T10:33:24;100954.56;;;3.27;91.49
75418;BME280;63997;52.112;5.420;2022-12-08T10:35:53;100952.97;;;3.31;91.43
75418;BME280;63997;52.112;5.420;2022-12-08T10:38:25;100955.59;;;3.31;91.51
75418;BME280;63997;52.112;5.420;2022-12-08T10:40:58;100952.97;;;3.31;91.26
75418;BME280;63997;52.112;5.420;2022-12-08T10:43:26;100951.91;;;3.32;91.31
75418;BME280;63997;52.112;5.420;2022-12-08T10:45:53;100939.28;;;3.34;91.00
75418;BME280;63997;52.112;5.420;2022-12-08T10:48:25;100944.81;;;3.38;91.45
75418;BME280;63997;52.112;5.420;2022-12-08T10:50:58;100942.97;;;3.38;91.42
75418;BME280;63997;52.112;5.420;2022-12-08T10:53:28;100952.41;;;3.39;91.33
75418;BME280;63997;52.112;5.420;2022-12-08T10:58:33;100944.53;;;3.39;91.10
75418;BME280;63997;52.112;5.420;2022-12-08T11:01:19;100948.72;;;3.40;91.23
75418;BME280;63997;52.112;5.420;2022-12-08T11:03:55;100942.97;;;3.38;91.13
75418;BME280;63997;52.112;5.420;2022-12-08T11:06:40;100949.50;;;3.41;91.29
75418;BME280;63997;52.112;5.420;2022-12-08T11:14:29;100950.84;;;3.33;90.77
75418;BME280;63997;52.112;5.420;2022-12-08T11:17:07;100949.00;;;3.34;90.99
75418;BME280;63997;52.112;5.420;2022-12-08T11:19:37;100952.16;;;3.31;91.13
75418;BME280;63997;52.112;5.420;2022-12-08T11:22:30;100950.34;;;3.26;91.27
75418;BME280;63997;52.112;5.420;2022-12-08T11:27:41;100941.69;;;3.26;91.29
75418;BME280;63997;52.112;5.420;2022-12-08T11:30:20;100940.63;;;3.22;91.38
75418;BME280;63997;52.112;5.420;2022-12-08T11:32:57;100940.38;;;3.18;91.11
75418;BME280;63997;52.112;5.420;2022-12-08T11:35:41;100927.78;;;3.15;91.18
75418;BME280;63997;52.112;5.420;2022-12-08T11:38:16;100917.81;;;3.07;91.15
75418;BME280;63997;52.112;5.420;2022-12-08T11:41:09;100916.78;;;2.98;90.93
75418;BME280;63997;52.112;5.420;2022-12-08T11:43:51;100901.81;;;2.93;91.07
75418;BME280;63997;52.112;5.420;2022-12-08T11:49:08;100898.94;;;2.89;91.03
75418;BME280;63997;52.112;5.420;2022-12-08T11:51:42;100890.00;;;2.85;91.26
75418;BME280;63997;52.112;5.420;2022-12-08T11:54:27;100892.13;;;2.88;91.57
75418;BME280;63997;52.112;5.420;2022-12-08T11:56:58;100888.94;;;2.91;91.48
75418;BME280;63997;52.112;5.420;2022-12-08T12:02:00;100885.78;;;2.95;91.76
75418;BME280;63997;52.112;5.420;2022-12-08T12:09:56;100870.31;;;2.93;91.49
75418;BME280;63997;52.112;5.420;2022-12-08T12:12:54;100870.31;;;2.93;91.57
75418;BME280;63997;52.112;5.420;2022-12-08T12:18:25;100871.59;;;3.01;91.69
75418;BME280;63997;52.112;5.420;2022-12-08T12:20:57;100878.97;;;2.99;91.29
75418;BME280;63997;52.112;5.420;2022-12-08T12:23:36;100872.09;;;3.03;91.32
75418;BME280;63997;52.112;5.420;2022-12-08T12:26:06;100870.28;;;3.03;91.32
75418;BME280;63997;52.112;5.420;2022-12-08T12:28:57;100861.34;;;3.04;91.27
75418;BME280;63997;52.112;5.420;2022-12-08T12:31:28;100863.19;;;3.09;91.17
75418;BME280;63997;52.112;5.420;2022-12-08T12:37:09;100860.50;;;3.14;91.14
75418;BME280;63997;52.112;5.420;2022-12-08T12:42:44;100854.22;;;3.10;90.84
75418;BME280;63997;52.112;5.420;2022-12-08T12:58:41;100860.44;;;3.29;91.06
75418;BME280;63997;52.112;5.420;2022-12-08T13:03:40;100856.84;;;3.15;91.17
75418;BME280;63997;52.112;5.420;2022-12-08T13:06:09;100849.19;;;3.24;91.24
75418;BME280;63997;52.112;5.420;2022-12-08T13:08:50;100848.09;;;3.30;91.33
75418;BME280;63997;52.112;5.420;2022-12-08T13:11:17;100842.06;;;3.29;91.29
75418;BME280;63997;52.112;5.420;2022-12-08T13:14:22;100852.28;;;3.36;91.19
75418;BME280;63997;52.112;5.420;2022-12-08T13:16:53;100844.91;;;3.38;91.39
75418;BME280;63997;52.112;5.420;2022-12-08T13:19:22;100844.63;;;3.44;90.65
75418;BME280;63997;52.112;5.420;2022-12-08T13:21:49;100843.28;;;3.47;90.87
75418;BME280;63997;52.112;5.420;2022-12-08T13:24:32;100839.63;;;3.48;90.55
75418;BME280;63997;52.112;5.420;2022-12-08T13:29:29;100842.50;;;3.47;90.54
75418;BME280;63997;52.112;5.420;2022-12-08T13:31:57;100844.59;;;3.50;90.90
75418;BME280;63997;52.112;5.420;2022-12-08T13:34:29;100837.75;;;3.54;90.88
75418;BME280;63997;52.112;5.420;2022-12-08T13:37:16;100830.88;;;3.53;90.47
75418;BME280;63997;52.112;5.420;2022-12-08T13:39:51;100825.72;;;3.42;90.33
75418;BME280;63997;52.112;5.420;2022-12-08T13:48:30;100831.81;;;3.28;90.29
75418;BME280;63997;52.112;5.420;2022-12-08T13:51:22;100832.34;;;3.25;90.15
75418;BME280;63997;52.112;5.420;2022-12-08T13:54:23;100836.56;;;3.26;90.46
75418;BME280;63997;52.112;5.420;2022-12-08T13:57:32;100827.38;;;3.23;90.44
75418;BME280;63997;52.112;5.420;2022-12-08T14:00:06;100827.84;;;3.30;90.74
75418;BME280;63997;52.112;5.420;2022-12-08T14:02:35;100832.78;;;3.42;90.78
75418;BME280;63997;52.112;5.420;2022-12-08T14:05:10;100831.19;;;3.46;90.81
75418;BME280;63997;52.112;5.420;2022-12-08T14:07:56;100837.00;;;3.48;90.48
75418;BME280;63997;52.112;5.420;2022-12-08T14:10:26;100840.88;;;3.56;90.66
75418;BME280;63997;52.112;5.420;2022-12-08T14:13:11;100846.13;;;3.56;90.35
75418;BME280;63997;52.112;5.420;2022-12-08T14:15:39;100838.28;;;3.51;90.30
75418;BME280;63997;52.112;5.420;2022-12-08T14:18:24;100837.00;;;3.48;90.13
75418;BME280;63997;52.112;5.420;2022-12-08T14:21:00;100831.50;;;3.39;90.04
75418;BME280;63997;52.112;5.420;2022-12-08T14:23:46;100825.72;;;3.37;90.17
75418;BME280;63997;52.112;5.420;2022-12-08T14:26:12;100830.72;;;3.39;90.14
75418;BME280;63997;52.112;5.420;2022-12-08T14:28:40;100834.16;;;3.34;90.13
75418;BME280;63997;52.112;5.420;2022-12-08T14:31:10;100838.38;;;3.30;90.28
75418;BME280;63997;52.112;5.420;2022-12-08T14:33:39;100841.53;;;3.27;89.86
75418;BME280;63997;52.112;5.420;2022-12-08T14:36:08;100840.78;;;3.22;89.92
75418;BME280;63997;52.112;5.420;2022-12-08T14:38:36;100845.28;;;3.16;90.02
75418;BME280;63997;52.112;5.420;2022-12-08T14:41:08;100850.81;;;3.14;90.21
75418;BME280;63997;52.112;5.420;2022-12-08T14:43:36;100846.84;;;3.12;90.41
75418;BME280;63997;52.112;5.420;2022-12-08T14:46:17;100853.19;;;3.11;90.28
75418;BME280;63997;52.112;5.420;2022-12-08T14:48:45;100842.38;;;3.12;90.32
75418;BME280;63997;52.112;5.420;2022-12-08T14:54:04;100845.31;;;3.01;90.29